sensor_id;sensor_type;location;lat;lon;timestamp;P1;durP1;ratioP1;P2;durP2;ratioP2
59824;SDS011;45703;50.898;6.054;2022-07-23T00:02:14;10.63;;;5.18;;
59824;SDS011;45703;50.898;6.054;2022-07-23T00:04:40;11.85;;;4.57;;
59824;SDS011;45703;50.898;6.054;2022-07-23T00:07:05;10.15;;;4.75;;
59824;SDS011;45703;50.898;6.054;2022-07-23T00:09:30;8.38;;;5.00;;
59824;SDS011;45703;50.898;6.054;2022-07-23T00:11:56;9.35;;;4.97;;
59824;SDS011;45703;50.898;6.054;2022-07-23T00:14:21;8.05;;;4.15;;
59824;SDS011;45703;50.898;6.054;2022-07-23T00:16:47;9.13;;;4.13;;
59824;SDS011;45703;50.898;6.054;2022-07-23T00:19:12;9.23;;;5.05;;
59824;SDS011;45703;50.898;6.054;2022-07-23T00:21:37;8.95;;;4.57;;
59824;SDS011;45703;50.898;6.054;2022-07-23T00:24:03;8.23;;;4.68;;
59824;SDS011;45703;50.898;6.054;2022-07-23T00:26:29;8.43;;;4.47;;
59824;SDS011;45703;50.898;6.054;2022-07-23T00:28:54;9.93;;;4.80;;
59824;SDS011;45703;50.898;6.054;2022-07-23T00:31:19;8.02;;;4.65;;
59824;SDS011;45703;50.898;6.054;2022-07-23T00:33:44;9.57;;;5.85;;
59824;SDS011;45703;50.898;6.054;2022-07-23T00:36:10;9.05;;;4.50;;
59824;SDS011;45703;50.898;6.054;2022-07-23T00:38:35;8.48;;;4.80;;
59824;SDS011;45703;50.898;6.054;2022-07-23T00:41:00;9.35;;;5.40;;
59824;SDS011;45703;50.898;6.054;2022-07-23T00:43:26;11.02;;;5.63;;
59824;SDS011;45703;50.898;6.054;2022-07-23T00:45:51;9.82;;;5.18;;
59824;SDS011;45703;50.898;6.054;2022-07-23T00:48:17;9.45;;;5.57;;
59824;SDS011;45703;50.898;6.054;2022-07-23T00:50:42;8.90;;;5.20;;
59824;SDS011;45703;50.898;6.054;2022-07-23T00:53:08;10.27;;;5.50;;
59824;SDS011;45703;50.898;6.054;2022-07-23T00:55:35;8.90;;;4.75;;
59824;SDS011;45703;50.898;6.054;2022-07-23T00:58:00;8.82;;;5.13;;
59824;SDS011;45703;50.898;6.054;2022-07-23T01:00:27;9.90;;;5.35;;
59824;SDS011;45703;50.898;6.054;2022-07-23T01:02:52;11.23;;;5.45;;
59824;SDS011;45703;50.898;6.054;2022-07-23T01:05:18;9.50;;;5.13;;
59824;SDS011;45703;50.898;6.054;2022-07-23T01:07:47;8.82;;;5.13;;
59824;SDS011;45703;50.898;6.054;2022-07-23T01:10:16;10.05;;;5.70;;
59824;SDS011;45703;50.898;6.054;2022-07-23T01:13:06;9.48;;;4.93;;
59824;SDS011;45703;50.898;6.054;2022-07-23T01:15:34;9.13;;;5.10;;
59824;SDS011;45703;50.898;6.054;2022-07-23T01:18:01;10.50;;;4.88;;
59824;SDS011;45703;50.898;6.054;2022-07-23T01:20:28;9.68;;;5.05;;
59824;SDS011;45703;50.898;6.054;2022-07-23T01:22:53;10.13;;;5.60;;
59824;SDS011;45703;50.898;6.054;2022-07-23T01:25:19;9.13;;;5.05;;
59824;SDS011;45703;50.898;6.054;2022-07-23T01:27:45;10.20;;;5.80;;
59824;SDS011;45703;50.898;6.054;2022-07-23T01:30:11;8.52;;;5.03;;
59824;SDS011;45703;50.898;6.054;2022-07-23T01:32:37;9.63;;;5.75;;
59824;SDS011;45703;50.898;6.054;2022-07-23T01:35:03;9.55;;;5.07;;
59824;SDS011;45703;50.898;6.054;2022-07-23T01:37:29;9.55;;;5.53;;
59824;SDS011;45703;50.898;6.054;2022-07-23T01:39:55;8.80;;;4.95;;
59824;SDS011;45703;50.898;6.054;2022-07-23T01:42:20;10.35;;;4.75;;
59824;SDS011;45703;50.898;6.054;2022-07-23T01:44:45;8.40;;;4.97;;
59824;SDS011;45703;50.898;6.054;2022-07-23T01:47:11;9.07;;;5.03;;
59824;SDS011;45703;50.898;6.054;2022-07-23T01:49:36;9.02;;;4.93;;
59824;SDS011;45703;50.898;6.054;2022-07-23T01:52:02;10.45;;;5.22;;
59824;SDS011;45703;50.898;6.054;2022-07-23T01:54:31;8.68;;;4.82;;
59824;SDS011;45703;50.898;6.054;2022-07-23T01:56:58;8.82;;;5.10;;
59824;SDS011;45703;50.898;6.054;2022-07-23T01:59:24;8.57;;;5.05;;
59824;SDS011;45703;50.898;6.054;2022-07-23T02:01:50;9.38;;;5.00;;
59824;SDS011;45703;50.898;6.054;2022-07-23T02:04:16;10.35;;;5.28;;
59824;SDS011;45703;50.898;6.054;2022-07-23T02:06:50;9.05;;;5.10;;
59824;SDS011;45703;50.898;6.054;2022-07-23T02:09:17;9.50;;;4.80;;
59824;SDS011;45703;50.898;6.054;2022-07-23T02:11:42;8.30;;;4.40;;
59824;SDS011;45703;50.898;6.054;2022-07-23T02:14:08;9.05;;;5.38;;
59824;SDS011;45703;50.898;6.054;2022-07-23T02:16:33;9.55;;;5.32;;
59824;SDS011;45703;50.898;6.054;2022-07-23T02:18:59;9.50;;;5.20;;
59824;SDS011;45703;50.898;6.054;2022-07-23T02:21:25;8.35;;;4.38;;
59824;SDS011;45703;50.898;6.054;2022-07-23T02:23:50;8.25;;;4.65;;
59824;SDS011;45703;50.898;6.054;2022-07-23T02:26:15;8.52;;;4.93;;
59824;SDS011;45703;50.898;6.054;2022-07-23T02:28:41;9.43;;;5.38;;
59824;SDS011;45703;50.898;6.054;2022-07-23T02:31:06;9.90;;;5.45;;
59824;SDS011;45703;50.898;6.054;2022-07-23T02:33:32;10.00;;;5.78;;
59824;SDS011;45703;50.898;6.054;2022-07-23T02:35:58;9.82;;;5.63;;
59824;SDS011;45703;50.898;6.054;2022-07-23T02:38:23;9.65;;;5.60;;
59824;SDS011;45703;50.898;6.054;2022-07-23T02:40:48;11.55;;;6.20;;
59824;SDS011;45703;50.898;6.054;2022-07-23T02:43:14;10.98;;;6.00;;
59824;SDS011;45703;50.898;6.054;2022-07-23T02:45:39;10.68;;;6.28;;
59824;SDS011;45703;50.898;6.054;2022-07-23T02:48:04;10.40;;;6.13;;
59824;SDS011;45703;50.898;6.054;2022-07-23T02:50:30;9.43;;;5.75;;
59824;SDS011;45703;50.898;6.054;2022-07-23T02:52:55;9.88;;;5.65;;
59824;SDS011;45703;50.898;6.054;2022-07-23T02:55:21;10.27;;;6.40;;
59824;SDS011;45703;50.898;6.054;2022-07-23T02:57:46;10.35;;;6.55;;
59824;SDS011;45703;50.898;6.054;2022-07-23T03:00:11;10.13;;;6.07;;
59824;SDS011;45703;50.898;6.054;2022-07-23T03:02:37;9.75;;;5.82;;
59824;SDS011;45703;50.898;6.054;2022-07-23T03:05:02;10.18;;;6.15;;
59824;SDS011;45703;50.898;6.054;2022-07-23T03:07:28;10.32;;;5.70;;
59824;SDS011;45703;50.898;6.054;2022-07-23T03:09:53;11.30;;;6.60;;
59824;SDS011;45703;50.898;6.054;2022-07-23T03:12:19;11.60;;;6.07;;
59824;SDS011;45703;50.898;6.054;2022-07-23T03:14:44;10.98;;;6.47;;
59824;SDS011;45703;50.898;6.054;2022-07-23T03:17:09;10.75;;;6.45;;
59824;SDS011;45703;50.898;6.054;2022-07-23T03:19:35;10.38;;;6.35;;
59824;SDS011;45703;50.898;6.054;2022-07-23T03:22:01;12.07;;;6.88;;
59824;SDS011;45703;50.898;6.054;2022-07-23T03:24:27;9.65;;;6.35;;
59824;SDS011;45703;50.898;6.054;2022-07-23T03:27:10;11.18;;;6.45;;
59824;SDS011;45703;50.898;6.054;2022-07-23T03:29:36;10.40;;;6.75;;
59824;SDS011;45703;50.898;6.054;2022-07-23T03:32:02;10.43;;;6.55;;
59824;SDS011;45703;50.898;6.054;2022-07-23T03:34:28;9.40;;;6.15;;
59824;SDS011;45703;50.898;6.054;2022-07-23T03:36:53;9.68;;;5.72;;
59824;SDS011;45703;50.898;6.054;2022-07-23T03:39:19;11.07;;;5.90;;
59824;SDS011;45703;50.898;6.054;2022-07-23T03:41:44;9.57;;;6.00;;
59824;SDS011;45703;50.898;6.054;2022-07-23T03:44:09;10.38;;;5.90;;
59824;SDS011;45703;50.898;6.054;2022-07-23T03:46:34;9.18;;;5.85;;
59824;SDS011;45703;50.898;6.054;2022-07-23T03:49:00;10.75;;;6.13;;
59824;SDS011;45703;50.898;6.054;2022-07-23T03:51:25;9.40;;;5.63;;
59824;SDS011;45703;50.898;6.054;2022-07-23T03:53:50;10.18;;;6.53;;
59824;SDS011;45703;50.898;6.054;2022-07-23T03:56:16;10.73;;;6.15;;
59824;SDS011;45703;50.898;6.054;2022-07-23T03:58:41;9.98;;;6.15;;
59824;SDS011;45703;50.898;6.054;2022-07-23T04:01:06;8.95;;;5.50;;
59824;SDS011;45703;50.898;6.054;2022-07-23T04:03:32;10.52;;;6.20;;
59824;SDS011;45703;50.898;6.054;2022-07-23T04:05:57;10.00;;;6.00;;
59824;SDS011;45703;50.898;6.054;2022-07-23T04:08:22;10.25;;;5.53;;
59824;SDS011;45703;50.898;6.054;2022-07-23T04:10:48;10.40;;;6.47;;
59824;SDS011;45703;50.898;6.054;2022-07-23T04:13:13;9.63;;;6.13;;
59824;SDS011;45703;50.898;6.054;2022-07-23T04:15:38;12.07;;;6.40;;
59824;SDS011;45703;50.898;6.054;2022-07-23T04:18:04;10.25;;;6.35;;
59824;SDS011;45703;50.898;6.054;2022-07-23T04:20:29;10.75;;;6.00;;
59824;SDS011;45703;50.898;6.054;2022-07-23T04:22:55;11.10;;;6.50;;
59824;SDS011;45703;50.898;6.054;2022-07-23T04:25:20;9.45;;;6.15;;
59824;SDS011;45703;50.898;6.054;2022-07-23T04:27:45;12.05;;;6.55;;
59824;SDS011;45703;50.898;6.054;2022-07-23T04:30:11;11.18;;;6.85;;
59824;SDS011;45703;50.898;6.054;2022-07-23T04:32:36;10.70;;;6.20;;
59824;SDS011;45703;50.898;6.054;2022-07-23T04:35:01;10.88;;;6.47;;
59824;SDS011;45703;50.898;6.054;2022-07-23T04:37:27;10.02;;;6.10;;
59824;SDS011;45703;50.898;6.054;2022-07-23T04:39:52;10.35;;;6.38;;
59824;SDS011;45703;50.898;6.054;2022-07-23T04:42:18;10.00;;;6.03;;
59824;SDS011;45703;50.898;6.054;2022-07-23T04:44:43;10.43;;;6.40;;
59824;SDS011;45703;50.898;6.054;2022-07-23T04:47:09;8.82;;;5.65;;
59824;SDS011;45703;50.898;6.054;2022-07-23T04:49:35;10.05;;;5.93;;
59824;SDS011;45703;50.898;6.054;2022-07-23T04:52:01;10.73;;;6.25;;
59824;SDS011;45703;50.898;6.054;2022-07-23T04:54:26;10.50;;;6.32;;
59824;SDS011;45703;50.898;6.054;2022-07-23T04:56:52;11.25;;;6.78;;
59824;SDS011;45703;50.898;6.054;2022-07-23T04:59:17;10.48;;;5.93;;
59824;SDS011;45703;50.898;6.054;2022-07-23T05:01:42;10.93;;;6.47;;
59824;SDS011;45703;50.898;6.054;2022-07-23T05:04:08;10.18;;;5.63;;
59824;SDS011;45703;50.898;6.054;2022-07-23T05:06:33;8.70;;;5.07;;
59824;SDS011;45703;50.898;6.054;2022-07-23T05:08:58;10.55;;;5.72;;
59824;SDS011;45703;50.898;6.054;2022-07-23T05:11:24;9.85;;;6.13;;
59824;SDS011;45703;50.898;6.054;2022-07-23T05:13:49;10.13;;;6.13;;
59824;SDS011;45703;50.898;6.054;2022-07-23T05:16:14;12.80;;;6.30;;
59824;SDS011;45703;50.898;6.054;2022-07-23T05:18:40;10.68;;;5.80;;
59824;SDS011;45703;50.898;6.054;2022-07-23T05:21:05;10.43;;;6.28;;
59824;SDS011;45703;50.898;6.054;2022-07-23T05:23:30;12.13;;;6.55;;
59824;SDS011;45703;50.898;6.054;2022-07-23T05:25:56;10.65;;;6.80;;
59824;SDS011;45703;50.898;6.054;2022-07-23T05:28:21;10.45;;;6.50;;
59824;SDS011;45703;50.898;6.054;2022-07-23T05:30:46;12.27;;;7.85;;
59824;SDS011;45703;50.898;6.054;2022-07-23T05:33:12;12.77;;;7.85;;
59824;SDS011;45703;50.898;6.054;2022-07-23T05:35:37;11.50;;;7.10;;
59824;SDS011;45703;50.898;6.054;2022-07-23T05:38:02;11.95;;;7.60;;
59824;SDS011;45703;50.898;6.054;2022-07-23T05:40:28;12.15;;;8.00;;
59824;SDS011;45703;50.898;6.054;2022-07-23T05:42:54;12.23;;;7.70;;
59824;SDS011;45703;50.898;6.054;2022-07-23T05:45:19;12.13;;;7.35;;
59824;SDS011;45703;50.898;6.054;2022-07-23T05:47:45;13.43;;;8.18;;
59824;SDS011;45703;50.898;6.054;2022-07-23T05:50:13;12.30;;;8.60;;
59824;SDS011;45703;50.898;6.054;2022-07-23T05:52:39;13.40;;;9.23;;
59824;SDS011;45703;50.898;6.054;2022-07-23T05:55:05;12.80;;;8.30;;
59824;SDS011;45703;50.898;6.054;2022-07-23T05:57:32;12.38;;;8.18;;
59824;SDS011;45703;50.898;6.054;2022-07-23T05:59:57;13.30;;;8.50;;
59824;SDS011;45703;50.898;6.054;2022-07-23T06:02:22;12.80;;;7.75;;
59824;SDS011;45703;50.898;6.054;2022-07-23T06:04:48;14.45;;;7.88;;
59824;SDS011;45703;50.898;6.054;2022-07-23T06:07:13;13.35;;;8.32;;
59824;SDS011;45703;50.898;6.054;2022-07-23T06:09:39;13.93;;;8.65;;
59824;SDS011;45703;50.898;6.054;2022-07-23T06:12:04;14.70;;;8.60;;
59824;SDS011;45703;50.898;6.054;2022-07-23T06:14:30;13.45;;;9.02;;
59824;SDS011;45703;50.898;6.054;2022-07-23T06:16:55;14.40;;;9.15;;
59824;SDS011;45703;50.898;6.054;2022-07-23T06:19:20;16.33;;;10.82;;
59824;SDS011;45703;50.898;6.054;2022-07-23T06:21:46;14.70;;;9.60;;
59824;SDS011;45703;50.898;6.054;2022-07-23T06:24:11;15.75;;;9.73;;
59824;SDS011;45703;50.898;6.054;2022-07-23T06:26:36;18.40;;;10.25;;
59824;SDS011;45703;50.898;6.054;2022-07-23T06:29:01;14.63;;;9.82;;
59824;SDS011;45703;50.898;6.054;2022-07-23T06:31:27;16.65;;;11.05;;
59824;SDS011;45703;50.898;6.054;2022-07-23T06:33:52;17.50;;;10.02;;
59824;SDS011;45703;50.898;6.054;2022-07-23T06:36:18;15.68;;;10.25;;
59824;SDS011;45703;50.898;6.054;2022-07-23T06:38:43;15.77;;;9.68;;
59824;SDS011;45703;50.898;6.054;2022-07-23T06:41:08;15.80;;;10.70;;
59824;SDS011;45703;50.898;6.054;2022-07-23T06:43:34;16.27;;;10.70;;
59824;SDS011;45703;50.898;6.054;2022-07-23T06:45:59;15.70;;;10.35;;
59824;SDS011;45703;50.898;6.054;2022-07-23T06:48:24;18.52;;;10.88;;
59824;SDS011;45703;50.898;6.054;2022-07-23T06:50:50;17.40;;;10.32;;
59824;SDS011;45703;50.898;6.054;2022-07-23T06:53:17;14.40;;;9.55;;
59824;SDS011;45703;50.898;6.054;2022-07-23T06:55:43;17.05;;;11.93;;
59824;SDS011;45703;50.898;6.054;2022-07-23T06:58:08;16.50;;;11.10;;
59824;SDS011;45703;50.898;6.054;2022-07-23T07:00:35;15.68;;;10.77;;
59824;SDS011;45703;50.898;6.054;2022-07-23T07:03:00;17.73;;;12.23;;
59824;SDS011;45703;50.898;6.054;2022-07-23T07:05:26;16.85;;;12.13;;
59824;SDS011;45703;50.898;6.054;2022-07-23T07:07:52;17.85;;;12.38;;
59824;SDS011;45703;50.898;6.054;2022-07-23T07:10:21;19.05;;;13.27;;
59824;SDS011;45703;50.898;6.054;2022-07-23T07:12:46;16.48;;;11.25;;
59824;SDS011;45703;50.898;6.054;2022-07-23T07:15:12;18.10;;;12.63;;
59824;SDS011;45703;50.898;6.054;2022-07-23T07:17:37;17.13;;;12.20;;
59824;SDS011;45703;50.898;6.054;2022-07-23T07:20:03;20.13;;;12.80;;
59824;SDS011;45703;50.898;6.054;2022-07-23T07:22:29;22.88;;;15.55;;
59824;SDS011;45703;50.898;6.054;2022-07-23T07:24:54;17.95;;;12.85;;
59824;SDS011;45703;50.898;6.054;2022-07-23T07:27:20;18.38;;;12.75;;
59824;SDS011;45703;50.898;6.054;2022-07-23T07:29:45;18.58;;;12.80;;
59824;SDS011;45703;50.898;6.054;2022-07-23T07:32:10;20.45;;;13.52;;
59824;SDS011;45703;50.898;6.054;2022-07-23T07:34:36;18.15;;;12.45;;
59824;SDS011;45703;50.898;6.054;2022-07-23T07:37:01;16.85;;;11.75;;
59824;SDS011;45703;50.898;6.054;2022-07-23T07:39:26;16.05;;;12.15;;
59824;SDS011;45703;50.898;6.054;2022-07-23T07:41:52;18.25;;;11.98;;
59824;SDS011;45703;50.898;6.054;2022-07-23T07:44:17;19.98;;;12.75;;
59824;SDS011;45703;50.898;6.054;2022-07-23T07:46:42;16.90;;;11.30;;
59824;SDS011;45703;50.898;6.054;2022-07-23T07:49:08;17.15;;;12.05;;
59824;SDS011;45703;50.898;6.054;2022-07-23T07:51:33;18.25;;;12.13;;
59824;SDS011;45703;50.898;6.054;2022-07-23T07:53:59;20.33;;;13.98;;
59824;SDS011;45703;50.898;6.054;2022-07-23T07:56:24;18.50;;;12.75;;
59824;SDS011;45703;50.898;6.054;2022-07-23T07:58:49;18.27;;;12.50;;
59824;SDS011;45703;50.898;6.054;2022-07-23T08:01:15;16.27;;;10.50;;
59824;SDS011;45703;50.898;6.054;2022-07-23T08:03:40;15.98;;;10.85;;
59824;SDS011;45703;50.898;6.054;2022-07-23T08:06:06;17.45;;;11.68;;
59824;SDS011;45703;50.898;6.054;2022-07-23T08:08:31;17.45;;;11.40;;
59824;SDS011;45703;50.898;6.054;2022-07-23T08:10:56;15.32;;;10.98;;
59824;SDS011;45703;50.898;6.054;2022-07-23T08:13:22;16.02;;;11.85;;
59824;SDS011;45703;50.898;6.054;2022-07-23T08:15:47;18.35;;;11.43;;
59824;SDS011;45703;50.898;6.054;2022-07-23T08:18:12;16.77;;;10.57;;
59824;SDS011;45703;50.898;6.054;2022-07-23T08:20:38;18.92;;;11.25;;
59824;SDS011;45703;50.898;6.054;2022-07-23T08:23:04;16.65;;;11.35;;
59824;SDS011;45703;50.898;6.054;2022-07-23T08:25:33;15.45;;;9.85;;
59824;SDS011;45703;50.898;6.054;2022-07-23T08:28:00;15.27;;;10.73;;
59824;SDS011;45703;50.898;6.054;2022-07-23T08:30:28;16.45;;;9.68;;
59824;SDS011;45703;50.898;6.054;2022-07-23T08:32:58;15.60;;;10.70;;
59824;SDS011;45703;50.898;6.054;2022-07-23T08:37:58;13.20;;;7.72;;
59824;SDS011;45703;50.898;6.054;2022-07-23T08:40:25;15.38;;;8.98;;
59824;SDS011;45703;50.898;6.054;2022-07-23T08:42:52;15.43;;;8.98;;
59824;SDS011;45703;50.898;6.054;2022-07-23T08:45:18;16.42;;;10.25;;
59824;SDS011;45703;50.898;6.054;2022-07-23T08:47:52;15.43;;;10.40;;
59824;SDS011;45703;50.898;6.054;2022-07-23T08:50:19;17.27;;;11.40;;
59824;SDS011;45703;50.898;6.054;2022-07-23T08:52:46;14.95;;;9.10;;
59824;SDS011;45703;50.898;6.054;2022-07-23T08:55:13;13.18;;;9.65;;
59824;SDS011;45703;50.898;6.054;2022-07-23T08:57:38;14.32;;;9.25;;
59824;SDS011;45703;50.898;6.054;2022-07-23T09:00:04;12.80;;;8.75;;
59824;SDS011;45703;50.898;6.054;2022-07-23T09:02:36;13.82;;;9.25;;
59824;SDS011;45703;50.898;6.054;2022-07-23T09:05:04;12.88;;;9.05;;
59824;SDS011;45703;50.898;6.054;2022-07-23T09:07:29;14.20;;;9.27;;
59824;SDS011;45703;50.898;6.054;2022-07-23T09:10:04;16.08;;;9.80;;
59824;SDS011;45703;50.898;6.054;2022-07-23T09:12:31;14.38;;;10.10;;
59824;SDS011;45703;50.898;6.054;2022-07-23T09:14:57;13.55;;;10.15;;
59824;SDS011;45703;50.898;6.054;2022-07-23T09:17:29;13.35;;;8.90;;
59824;SDS011;45703;50.898;6.054;2022-07-23T09:20:09;16.83;;;10.45;;
59824;SDS011;45703;50.898;6.054;2022-07-23T09:22:36;15.45;;;9.45;;
59824;SDS011;45703;50.898;6.054;2022-07-23T09:25:05;15.98;;;10.43;;
59824;SDS011;45703;50.898;6.054;2022-07-23T09:30:22;15.13;;;10.65;;
59824;SDS011;45703;50.898;6.054;2022-07-23T09:33:04;15.02;;;11.00;;
59824;SDS011;45703;50.898;6.054;2022-07-23T09:35:48;14.18;;;10.90;;
59824;SDS011;45703;50.898;6.054;2022-07-23T09:38:19;17.13;;;11.95;;
59824;SDS011;45703;50.898;6.054;2022-07-23T09:41:04;13.88;;;10.10;;
59824;SDS011;45703;50.898;6.054;2022-07-23T09:43:36;12.80;;;9.55;;
59824;SDS011;45703;50.898;6.054;2022-07-23T09:46:17;13.63;;;9.85;;
59824;SDS011;45703;50.898;6.054;2022-07-23T09:48:44;14.70;;;9.52;;
59824;SDS011;45703;50.898;6.054;2022-07-23T09:51:09;13.05;;;8.80;;
59824;SDS011;45703;50.898;6.054;2022-07-23T09:53:34;13.75;;;8.20;;
59824;SDS011;45703;50.898;6.054;2022-07-23T09:56:00;10.95;;;7.43;;
59824;SDS011;45703;50.898;6.054;2022-07-23T09:58:25;11.30;;;7.03;;
59824;SDS011;45703;50.898;6.054;2022-07-23T10:00:54;12.15;;;7.78;;
59824;SDS011;45703;50.898;6.054;2022-07-23T10:03:21;10.52;;;7.47;;
59824;SDS011;45703;50.898;6.054;2022-07-23T10:05:48;12.77;;;7.90;;
59824;SDS011;45703;50.898;6.054;2022-07-23T10:08:16;12.07;;;7.75;;
59824;SDS011;45703;50.898;6.054;2022-07-23T10:10:44;12.50;;;8.45;;
59824;SDS011;45703;50.898;6.054;2022-07-23T10:13:13;10.15;;;7.10;;
59824;SDS011;45703;50.898;6.054;2022-07-23T10:16:01;11.27;;;6.77;;
59824;SDS011;45703;50.898;6.054;2022-07-23T10:18:26;10.55;;;6.32;;
59824;SDS011;45703;50.898;6.054;2022-07-23T10:20:52;11.15;;;8.10;;
59824;SDS011;45703;50.898;6.054;2022-07-23T10:24:01;11.35;;;6.50;;
59824;SDS011;45703;50.898;6.054;2022-07-23T10:26:51;12.07;;;6.28;;
59824;SDS011;45703;50.898;6.054;2022-07-23T10:29:13;10.88;;;5.88;;
59824;SDS011;45703;50.898;6.054;2022-07-23T10:34:41;9.70;;;4.93;;
59824;SDS011;45703;50.898;6.054;2022-07-23T10:37:21;8.70;;;3.83;;
59824;SDS011;45703;50.898;6.054;2022-07-23T10:42:51;9.13;;;5.32;;
59824;SDS011;45703;50.898;6.054;2022-07-23T10:45:33;8.38;;;4.68;;
59824;SDS011;45703;50.898;6.054;2022-07-23T10:48:13;8.52;;;4.70;;
59824;SDS011;45703;50.898;6.054;2022-07-23T10:51:09;8.00;;;4.05;;
59824;SDS011;45703;50.898;6.054;2022-07-23T10:59:30;8.27;;;4.72;;
59824;SDS011;45703;50.898;6.054;2022-07-23T11:02:20;9.00;;;4.50;;
59824;SDS011;45703;50.898;6.054;2022-07-23T11:04:51;9.38;;;3.83;;
59824;SDS011;45703;50.898;6.054;2022-07-23T11:07:18;9.18;;;4.03;;
59824;SDS011;45703;50.898;6.054;2022-07-23T11:09:44;8.32;;;4.03;;
59824;SDS011;45703;50.898;6.054;2022-07-23T11:20:24;9.60;;;4.75;;
59824;SDS011;45703;50.898;6.054;2022-07-23T11:22:57;9.60;;;4.68;;
59824;SDS011;45703;50.898;6.054;2022-07-23T11:27:50;8.20;;;4.30;;
59824;SDS011;45703;50.898;6.054;2022-07-23T11:35:41;8.38;;;4.50;;
59824;SDS011;45703;50.898;6.054;2022-07-23T11:38:12;8.13;;;4.20;;
59824;SDS011;45703;50.898;6.054;2022-07-23T11:40:38;7.10;;;3.90;;
59824;SDS011;45703;50.898;6.054;2022-07-23T11:43:05;8.13;;;3.75;;
59824;SDS011;45703;50.898;6.054;2022-07-23T11:45:44;7.70;;;3.60;;
59824;SDS011;45703;50.898;6.054;2022-07-23T11:48:20;7.03;;;3.75;;
59824;SDS011;45703;50.898;6.054;2022-07-23T11:50:48;6.85;;;3.20;;
59824;SDS011;45703;50.898;6.054;2022-07-23T11:53:20;7.60;;;3.83;;
59824;SDS011;45703;50.898;6.054;2022-07-23T11:55:52;7.55;;;3.80;;
59824;SDS011;45703;50.898;6.054;2022-07-23T11:58:19;7.97;;;3.47;;
59824;SDS011;45703;50.898;6.054;2022-07-23T12:00:44;7.70;;;3.75;;
59824;SDS011;45703;50.898;6.054;2022-07-23T12:03:10;8.13;;;4.10;;
59824;SDS011;45703;50.898;6.054;2022-07-23T12:05:36;7.32;;;3.85;;
59824;SDS011;45703;50.898;6.054;2022-07-23T12:08:06;7.75;;;3.03;;
59824;SDS011;45703;50.898;6.054;2022-07-23T12:10:36;7.35;;;3.35;;
59824;SDS011;45703;50.898;6.054;2022-07-23T12:13:03;7.10;;;3.10;;
59824;SDS011;45703;50.898;6.054;2022-07-23T12:15:42;7.38;;;3.58;;
59824;SDS011;45703;50.898;6.054;2022-07-23T12:18:10;7.85;;;4.30;;
59824;SDS011;45703;50.898;6.054;2022-07-23T12:20:44;7.72;;;3.60;;
59824;SDS011;45703;50.898;6.054;2022-07-23T12:23:13;9.27;;;3.53;;
59824;SDS011;45703;50.898;6.054;2022-07-23T12:25:41;6.55;;;2.90;;
59824;SDS011;45703;50.898;6.054;2022-07-23T12:28:10;7.50;;;3.50;;
59824;SDS011;45703;50.898;6.054;2022-07-23T12:30:38;7.03;;;3.20;;
59824;SDS011;45703;50.898;6.054;2022-07-23T12:33:05;6.57;;;3.15;;
59824;SDS011;45703;50.898;6.054;2022-07-23T12:35:34;6.18;;;2.85;;
59824;SDS011;45703;50.898;6.054;2022-07-23T12:38:07;6.70;;;2.95;;
59824;SDS011;45703;50.898;6.054;2022-07-23T12:40:35;7.28;;;2.67;;
59824;SDS011;45703;50.898;6.054;2022-07-23T12:43:31;8.60;;;3.20;;
59824;SDS011;45703;50.898;6.054;2022-07-23T12:46:05;6.97;;;2.70;;
59824;SDS011;45703;50.898;6.054;2022-07-23T12:53:50;7.60;;;3.17;;
59824;SDS011;45703;50.898;6.054;2022-07-23T13:03:54;6.23;;;3.07;;
59824;SDS011;45703;50.898;6.054;2022-07-23T13:06:24;7.35;;;3.05;;
59824;SDS011;45703;50.898;6.054;2022-07-23T13:08:51;6.88;;;2.97;;
59824;SDS011;45703;50.898;6.054;2022-07-23T13:11:18;6.53;;;3.00;;
59824;SDS011;45703;50.898;6.054;2022-07-23T13:13:43;6.65;;;2.80;;
59824;SDS011;45703;50.898;6.054;2022-07-23T13:16:09;6.30;;;3.10;;
59824;SDS011;45703;50.898;6.054;2022-07-23T13:18:34;6.93;;;3.10;;
59824;SDS011;45703;50.898;6.054;2022-07-23T13:20:59;6.63;;;2.90;;
59824;SDS011;45703;50.898;6.054;2022-07-23T13:23:25;7.53;;;2.85;;
59824;SDS011;45703;50.898;6.054;2022-07-23T13:25:50;6.68;;;3.05;;
59824;SDS011;45703;50.898;6.054;2022-07-23T13:28:16;6.97;;;3.13;;
59824;SDS011;45703;50.898;6.054;2022-07-23T13:30:43;6.70;;;2.75;;
59824;SDS011;45703;50.898;6.054;2022-07-23T13:33:10;7.28;;;2.92;;
59824;SDS011;45703;50.898;6.054;2022-07-23T13:35:35;8.57;;;3.35;;
59824;SDS011;45703;50.898;6.054;2022-07-23T13:38:02;7.75;;;3.17;;
59824;SDS011;45703;50.898;6.054;2022-07-23T13:40:28;7.72;;;2.92;;
59824;SDS011;45703;50.898;6.054;2022-07-23T13:42:54;6.85;;;3.30;;
59824;SDS011;45703;50.898;6.054;2022-07-23T13:45:20;6.60;;;3.20;;
59824;SDS011;45703;50.898;6.054;2022-07-23T13:47:45;7.90;;;3.90;;
59824;SDS011;45703;50.898;6.054;2022-07-23T13:50:10;6.95;;;3.10;;
59824;SDS011;45703;50.898;6.054;2022-07-23T13:52:36;7.18;;;3.10;;
59824;SDS011;45703;50.898;6.054;2022-07-23T13:55:02;7.13;;;2.90;;
59824;SDS011;45703;50.898;6.054;2022-07-23T13:57:29;6.40;;;2.75;;
59824;SDS011;45703;50.898;6.054;2022-07-23T13:59:54;7.00;;;3.17;;
59824;SDS011;45703;50.898;6.054;2022-07-23T14:02:20;6.85;;;3.22;;
59824;SDS011;45703;50.898;6.054;2022-07-23T14:04:45;7.93;;;2.80;;
59824;SDS011;45703;50.898;6.054;2022-07-23T14:07:11;8.38;;;3.25;;
59824;SDS011;45703;50.898;6.054;2022-07-23T14:09:36;6.80;;;3.05;;
59824;SDS011;45703;50.898;6.054;2022-07-23T14:12:02;7.03;;;3.00;;
59824;SDS011;45703;50.898;6.054;2022-07-23T14:14:28;7.60;;;3.10;;
59824;SDS011;45703;50.898;6.054;2022-07-23T14:16:54;7.00;;;3.10;;
59824;SDS011;45703;50.898;6.054;2022-07-23T14:19:20;6.90;;;2.80;;
59824;SDS011;45703;50.898;6.054;2022-07-23T14:21:45;10.38;;;9.27;;
59824;SDS011;45703;50.898;6.054;2022-07-23T14:24:11;8.20;;;3.90;;
59824;SDS011;45703;50.898;6.054;2022-07-23T14:26:36;8.35;;;3.55;;
59824;SDS011;45703;50.898;6.054;2022-07-23T14:29:01;6.95;;;3.30;;
59824;SDS011;45703;50.898;6.054;2022-07-23T14:31:27;6.18;;;3.00;;
59824;SDS011;45703;50.898;6.054;2022-07-23T14:33:52;7.57;;;3.33;;
59824;SDS011;45703;50.898;6.054;2022-07-23T14:36:17;6.55;;;2.90;;
59824;SDS011;45703;50.898;6.054;2022-07-23T14:38:43;5.43;;;2.53;;
59824;SDS011;45703;50.898;6.054;2022-07-23T14:41:08;6.45;;;3.25;;
59824;SDS011;45703;50.898;6.054;2022-07-23T14:43:34;6.28;;;3.20;;
59824;SDS011;45703;50.898;6.054;2022-07-23T14:46:00;6.50;;;2.67;;
59824;SDS011;45703;50.898;6.054;2022-07-23T14:48:25;6.82;;;2.97;;
59824;SDS011;45703;50.898;6.054;2022-07-23T14:50:50;6.38;;;3.10;;
59824;SDS011;45703;50.898;6.054;2022-07-23T14:53:16;6.63;;;3.25;;
59824;SDS011;45703;50.898;6.054;2022-07-23T14:55:42;7.18;;;2.78;;
59824;SDS011;45703;50.898;6.054;2022-07-23T14:58:07;6.88;;;2.85;;
59824;SDS011;45703;50.898;6.054;2022-07-23T15:00:33;5.68;;;2.70;;
59824;SDS011;45703;50.898;6.054;2022-07-23T15:02:58;9.98;;;3.05;;
59824;SDS011;45703;50.898;6.054;2022-07-23T15:05:23;6.13;;;2.80;;
59824;SDS011;45703;50.898;6.054;2022-07-23T15:07:49;6.40;;;2.53;;
59824;SDS011;45703;50.898;6.054;2022-07-23T15:10:15;6.57;;;3.22;;
59824;SDS011;45703;50.898;6.054;2022-07-23T15:12:40;6.38;;;2.70;;
59824;SDS011;45703;50.898;6.054;2022-07-23T15:15:06;6.72;;;3.00;;
59824;SDS011;45703;50.898;6.054;2022-07-23T15:17:32;7.53;;;2.95;;
59824;SDS011;45703;50.898;6.054;2022-07-23T15:19:57;6.40;;;3.03;;
59824;SDS011;45703;50.898;6.054;2022-07-23T15:22:23;6.18;;;2.33;;
59824;SDS011;45703;50.898;6.054;2022-07-23T15:24:48;6.30;;;2.67;;